createdAt,value
2018-03-30T00:01:50.394Z,-1.00
2018-03-30T00:04:21.792Z,-1.10
2018-03-30T00:06:52.229Z,-1.20
2018-03-30T00:09:31.526Z,-1.20
2018-03-30T00:12:02.332Z,-1.30
2018-03-30T00:14:33.528Z,-1.40
2018-03-30T00:17:04.231Z,-1.50
2018-03-30T00:19:34.835Z,-1.50
2018-03-30T00:22:05.553Z,-1.50
2018-03-30T00:24:36.455Z,-1.50
2018-03-30T00:27:07.971Z,-1.50
2018-03-30T00:29:39.493Z,-1.50
2018-03-30T00:32:09.809Z,-1.50
2018-03-30T00:34:40.596Z,-1.50
2018-03-30T00:37:11.174Z,-1.40
2018-03-30T00:39:41.947Z,-1.30
2018-03-30T00:42:12.799Z,-1.30
2018-03-30T00:44:43.230Z,-1.30
2018-03-30T00:47:13.836Z,-1.40
2018-03-30T00:49:44.933Z,-1.40
2018-03-30T00:52:15.742Z,-1.50
2018-03-30T00:54:46.587Z,-1.50
2018-03-30T00:57:16.933Z,-1.50
2018-03-30T00:59:47.240Z,-1.50
2018-03-30T01:02:18.081Z,-1.50
2018-03-30T01:04:48.466Z,-1.60
2018-03-30T01:07:18.807Z,-1.60
2018-03-30T01:09:49.430Z,-1.60
2018-03-30T01:12:20.930Z,-1.70
2018-03-30T01:14:52.090Z,-1.60
2018-03-30T01:17:22.550Z,-1.70
2018-03-30T01:19:53.077Z,-1.60
2018-03-30T01:22:23.639Z,-1.60
2018-03-30T01:24:54.225Z,-1.60
2018-03-30T01:27:25.597Z,-1.60
2018-03-30T01:29:56.271Z,-1.60
2018-03-30T01:32:26.565Z,-1.60
2018-03-30T01:34:57.089Z,-1.60
2018-03-30T01:37:27.691Z,-1.70
2018-03-30T01:39:59.231Z,-1.70
2018-03-30T01:42:30.217Z,-1.80
2018-03-30T01:45:00.616Z,-1.80
2018-03-30T01:47:32.584Z,-1.80
2018-03-30T01:50:03.128Z,-1.80
2018-03-30T01:52:33.767Z,-1.80
2018-03-30T01:55:04.774Z,-1.80
2018-03-30T01:57:36.217Z,-1.80
2018-03-30T02:00:07.885Z,-1.80
2018-03-30T02:02:38.507Z,-1.90
2018-03-30T02:05:09.247Z,-1.90
2018-03-30T02:07:40.726Z,-1.70
2018-03-30T02:10:12.536Z,-1.70
2018-03-30T02:12:43.194Z,-1.70
2018-03-30T02:15:13.926Z,-1.60
2018-03-30T02:17:44.466Z,-1.50
2018-03-30T02:20:15.458Z,-1.50
2018-03-30T02:22:46.306Z,-1.60
2018-03-30T02:25:17.233Z,-1.60
2018-03-30T02:27:48.795Z,-1.50
2018-03-30T02:30:19.205Z,-1.50
2018-03-30T02:32:49.921Z,-1.50
2018-03-30T02:35:21.012Z,-1.60
2018-03-30T02:37:51.897Z,-1.60
2018-03-30T02:40:22.333Z,-1.70
2018-03-30T02:42:53.619Z,-1.80
2018-03-30T02:45:24.182Z,-1.80
2018-03-30T02:47:55.291Z,-1.50
2018-03-30T02:50:26.099Z,-1.50
2018-03-30T02:52:57.057Z,-1.40
2018-03-30T02:55:27.759Z,-1.30
2018-03-30T02:57:58.595Z,-1.30
2018-03-30T03:00:28.983Z,-1.30
2018-03-30T03:03:00.940Z,-1.30
2018-03-30T03:05:31.988Z,-1.30
2018-03-30T03:08:03.501Z,-1.30
2018-03-30T03:10:33.871Z,-1.30
2018-03-30T03:13:05.246Z,-1.40
2018-03-30T03:15:35.757Z,-1.40
2018-03-30T03:18:06.419Z,-1.50
2018-03-30T03:20:37.224Z,-1.50
2018-03-30T03:23:08.871Z,-1.60
2018-03-30T03:25:40.290Z,-1.50
2018-03-30T03:28:10.978Z,-1.60
2018-03-30T03:30:41.912Z,-1.40
2018-03-30T03:33:12.439Z,-1.40
2018-03-30T03:35:43.030Z,-1.30
2018-03-30T03:38:13.393Z,-1.30
2018-03-30T03:40:44.163Z,-1.30
2018-03-30T03:43:15.440Z,-1.20
2018-03-30T03:45:46.586Z,-1.10
2018-03-30T03:48:17.662Z,-1.10
2018-03-30T03:50:48.187Z,-1.10
2018-03-30T03:53:18.968Z,-1.10
2018-03-30T03:55:49.804Z,-1.10
2018-03-30T03:58:20.502Z,-1.00
2018-03-30T04:00:51.421Z,-1.00
2018-03-30T04:03:22.035Z,-1.00
2018-03-30T04:05:52.695Z,-1.00
2018-03-30T04:08:24.200Z,-1.00
2018-03-30T04:10:54.971Z,-1.10
2018-03-30T04:13:25.613Z,-1.10
2018-03-30T04:15:56.056Z,-1.20
2018-03-30T04:18:36.559Z,-1.20
2018-03-30T04:21:06.955Z,-1.30
2018-03-30T04:23:38.099Z,-1.40
2018-03-30T04:26:09.199Z,-1.40
2018-03-30T04:28:40.867Z,-1.50
2018-03-30T04:31:11.286Z,-1.40
2018-03-30T04:33:41.660Z,-1.30
2018-03-30T04:36:12.378Z,-1.30
2018-03-30T04:38:43.794Z,-1.50
2018-03-30T04:41:14.219Z,-1.40
2018-03-30T04:43:45.336Z,-1.50
2018-03-30T04:46:15.931Z,-1.50
2018-03-30T04:48:46.610Z,-1.50
2018-03-30T04:51:17.008Z,-1.60
2018-03-30T04:53:47.653Z,-1.60
2018-03-30T04:56:18.366Z,-1.70
2018-03-30T04:58:49.195Z,-1.70
2018-03-30T05:01:20.410Z,-1.60
2018-03-30T05:03:50.993Z,-1.60
2018-03-30T05:06:21.323Z,-1.50
2018-03-30T05:08:51.936Z,-1.40
2018-03-30T05:11:22.575Z,-1.50
2018-03-30T05:13:52.988Z,-1.50
2018-03-30T05:16:23.344Z,-1.40
2018-03-30T05:18:53.973Z,-1.40
2018-03-30T05:21:24.913Z,-1.40
2018-03-30T05:23:55.439Z,-1.40
2018-03-30T05:26:25.791Z,-1.30
2018-03-30T05:28:56.114Z,-1.20
2018-03-30T05:31:26.800Z,-1.10
2018-03-30T05:33:57.232Z,-1.10
2018-03-30T05:36:27.699Z,-1.00
2018-03-30T05:38:58.848Z,-1.00
2018-03-30T05:41:29.194Z,-0.90
2018-03-30T05:44:00.370Z,-0.70
2018-03-30T05:46:31.607Z,-0.70
2018-03-30T05:49:03.214Z,-0.50
2018-03-30T05:51:33.998Z,-0.60
2018-03-30T05:54:05.339Z,-0.40
2018-03-30T05:56:35.703Z,-0.40
2018-03-30T05:59:06.562Z,-0.30
2018-03-30T06:01:37.175Z,-0.30
2018-03-30T06:04:07.691Z,-0.20
2018-03-30T06:06:38.101Z,-0.20
2018-03-30T06:09:08.547Z,-0.10
2018-03-30T06:11:39.973Z,0.00
2018-03-30T06:14:10.327Z,0.00
2018-03-30T06:16:41.426Z,0.20
2018-03-30T06:19:11.965Z,0.20
2018-03-30T06:21:42.539Z,0.30
2018-03-30T06:24:12.878Z,0.40
2018-03-30T06:26:44.519Z,0.60
2018-03-30T06:29:15.539Z,0.50
2018-03-30T06:31:46.008Z,0.70
2018-03-30T06:34:16.646Z,0.80
2018-03-30T06:36:48.116Z,0.90
2018-03-30T06:39:18.646Z,0.90
2018-03-30T06:41:49.078Z,1.00
2018-03-30T06:44:19.733Z,1.00
2018-03-30T06:46:50.479Z,1.00
2018-03-30T06:49:20.898Z,1.10
2018-03-30T06:51:52.397Z,1.30
2018-03-30T06:54:23.771Z,1.40
2018-03-30T06:56:54.290Z,1.40
2018-03-30T06:59:24.658Z,1.40
2018-03-30T07:01:54.984Z,1.50
2018-03-30T07:04:25.626Z,1.70
2018-03-30T07:06:55.938Z,1.90
2018-03-30T07:09:26.318Z,2.00
2018-03-30T07:11:57.006Z,2.00
2018-03-30T07:14:27.338Z,2.10
2018-03-30T07:16:58.440Z,2.20
2018-03-30T07:19:29.272Z,2.20
2018-03-30T07:21:59.607Z,2.30
2018-03-30T07:24:30.011Z,2.30
2018-03-30T07:27:00.696Z,2.50
2018-03-30T07:29:31.059Z,2.50
2018-03-30T07:32:01.446Z,2.50
2018-03-30T07:34:32.952Z,2.50
2018-03-30T07:37:03.465Z,2.50
2018-03-30T07:39:33.888Z,2.50
2018-03-30T07:42:04.383Z,2.50
2018-03-30T07:44:35.755Z,2.70
2018-03-30T07:47:07.432Z,2.70
2018-03-30T07:49:37.829Z,2.70
2018-03-30T07:52:08.392Z,2.90
2018-03-30T07:54:39.090Z,3.00
2018-03-30T07:57:10.899Z,3.10
2018-03-30T07:59:41.482Z,3.10
2018-03-30T08:02:12.256Z,3.20
2018-03-30T08:04:43.479Z,3.40
2018-03-30T08:07:13.822Z,3.40
2018-03-30T08:09:45.286Z,3.60
2018-03-30T08:12:17.234Z,3.60
2018-03-30T08:14:47.583Z,3.60
2018-03-30T08:17:18.331Z,3.70
2018-03-30T08:19:49.167Z,3.80
2018-03-30T08:22:20.275Z,4.10
2018-03-30T08:24:50.947Z,4.10
2018-03-30T08:27:22.011Z,4.40
2018-03-30T08:29:52.628Z,4.40
2018-03-30T08:32:23.295Z,4.60
2018-03-30T08:34:53.633Z,4.30
2018-03-30T08:37:23.984Z,4.40
2018-03-30T08:39:54.584Z,4.40
2018-03-30T08:42:24.959Z,4.70
2018-03-30T08:44:55.310Z,4.70
2018-03-30T08:47:26.646Z,5.40
2018-03-30T08:49:57.040Z,5.30
2018-03-30T08:52:28.260Z,5.50
2018-03-30T08:54:58.914Z,5.50
2018-03-30T08:57:29.330Z,5.70
2018-03-30T09:00:00.526Z,5.80
2018-03-30T09:02:31.245Z,5.80
2018-03-30T09:05:01.617Z,5.80
2018-03-30T09:07:31.987Z,5.70
2018-03-30T09:10:03.447Z,5.70
2018-03-30T09:12:33.806Z,5.80
2018-03-30T09:15:04.314Z,5.80
2018-03-30T09:17:34.983Z,6.00
2018-03-30T09:20:06.288Z,6.20
2018-03-30T09:22:36.688Z,6.20
2018-03-30T09:25:08.063Z,6.30
2018-03-30T09:27:38.455Z,6.30
2018-03-30T09:30:09.283Z,6.50
2018-03-30T09:32:40.806Z,6.70
2018-03-30T09:35:11.199Z,6.70
2018-03-30T09:37:41.672Z,6.80
2018-03-30T09:40:12.289Z,6.70
2018-03-30T09:42:42.626Z,6.80
2018-03-30T09:45:12.991Z,6.80
2018-03-30T09:47:43.598Z,7.10
2018-03-30T09:50:13.894Z,7.40
2018-03-30T09:52:44.248Z,7.40
2018-03-30T09:55:15.617Z,7.10
2018-03-30T09:57:45.919Z,7.00
2018-03-30T10:00:21.378Z,7.20
2018-03-30T10:02:53.839Z,7.10
2018-03-30T10:05:24.168Z,7.10
2018-03-30T10:07:55.257Z,7.10
2018-03-30T10:10:25.835Z,7.10
2018-03-30T10:12:57.014Z,7.30
2018-03-30T10:15:27.383Z,7.30
2018-03-30T10:17:58.062Z,7.40
2018-03-30T10:20:28.707Z,7.40
2018-03-30T10:22:59.048Z,7.60
2018-03-30T10:25:29.647Z,7.60
2018-03-30T10:27:59.983Z,7.80
2018-03-30T10:30:31.387Z,7.70
2018-03-30T10:33:01.783Z,7.70
2018-03-30T10:35:32.476Z,7.90
2018-03-30T10:38:02.941Z,8.00
2018-03-30T10:40:33.287Z,7.80
2018-03-30T10:43:03.940Z,8.00
2018-03-30T10:45:35.029Z,8.00
2018-03-30T10:48:05.476Z,7.90
2018-03-30T10:50:36.086Z,8.40
2018-03-30T10:53:07.234Z,9.00
2018-03-30T10:55:37.594Z,9.00
2018-03-30T10:58:08.198Z,8.50
2018-03-30T11:00:38.575Z,8.20
2018-03-30T11:03:08.886Z,8.30
2018-03-30T11:05:40.243Z,8.80
2018-03-30T11:08:10.546Z,8.80
2018-03-30T11:10:42.314Z,9.10
2018-03-30T11:13:13.692Z,9.00
2018-03-30T11:15:44.099Z,9.00
2018-03-30T11:18:14.579Z,9.00
2018-03-30T11:20:45.250Z,9.10
2018-03-30T11:23:16.207Z,9.20
2018-03-30T11:25:46.902Z,9.10
2018-03-30T11:28:17.267Z,9.00
2018-03-30T11:30:47.707Z,8.90
2018-03-30T11:33:18.576Z,8.90
2018-03-30T11:35:48.953Z,8.60
2018-03-30T11:38:19.395Z,8.70
2018-03-30T11:40:50.082Z,8.70
2018-03-30T11:43:21.182Z,8.90
2018-03-30T11:45:51.587Z,8.90
2018-03-30T11:48:22.199Z,9.30
2018-03-30T11:50:52.559Z,9.60
2018-03-30T11:53:22.941Z,9.70
2018-03-30T11:55:54.294Z,9.60
2018-03-30T11:58:24.714Z,9.90
2018-03-30T12:00:55.043Z,9.90
2018-03-30T12:03:25.667Z,9.70
2018-03-30T12:05:56.746Z,9.30
2018-03-30T12:08:27.177Z,9.20
2018-03-30T12:10:57.807Z,9.50
2018-03-30T12:13:28.670Z,9.90
2018-03-30T12:15:59.039Z,10.10
2018-03-30T12:18:29.864Z,10.30
2018-03-30T12:21:00.282Z,10.70
2018-03-30T12:23:31.695Z,10.70
2018-03-30T12:26:02.067Z,10.60
2018-03-30T12:28:32.802Z,11.00
2018-03-30T12:31:03.334Z,11.50
2018-03-30T12:33:33.869Z,11.80
2018-03-30T12:36:04.706Z,11.50
2018-03-30T12:38:35.237Z,11.40
2018-03-30T12:41:05.577Z,11.00
2018-03-30T12:43:36.199Z,10.80
2018-03-30T12:46:06.563Z,10.40
2018-03-30T12:48:36.949Z,10.60
2018-03-30T12:51:07.660Z,10.90
2018-03-30T12:53:38.042Z,11.10
2018-03-30T12:56:08.719Z,12.00
2018-03-30T12:58:39.416Z,12.00
2018-03-30T13:01:11.099Z,12.40
2018-03-30T13:03:42.054Z,12.40
2018-03-30T13:06:12.726Z,12.40
2018-03-30T13:08:43.406Z,12.40
2018-03-30T13:11:13.748Z,12.80
2018-03-30T13:13:44.355Z,12.50
2018-03-30T13:16:14.768Z,12.50
2018-03-30T13:18:45.938Z,13.60
2018-03-30T13:21:16.608Z,13.50
2018-03-30T13:23:47.773Z,13.50
2018-03-30T13:26:18.388Z,13.40
2018-03-30T13:28:49.575Z,14.10
2018-03-30T13:31:20.284Z,14.10
2018-03-30T13:33:50.786Z,14.20
2018-03-30T13:36:21.121Z,14.30
2018-03-30T13:38:51.579Z,13.60
2018-03-30T13:41:23.289Z,14.60
2018-03-30T13:43:53.859Z,14.50
2018-03-30T13:46:24.996Z,14.90
2018-03-30T13:48:55.725Z,14.90
2018-03-30T13:51:26.580Z,15.20
2018-03-30T13:53:57.886Z,15.00
2018-03-30T13:56:28.835Z,14.90
2018-03-30T13:58:59.454Z,15.60
2018-03-30T14:01:30.416Z,16.20
2018-03-30T14:04:01.630Z,16.20
2018-03-30T14:06:34.342Z,16.60
2018-03-30T14:09:09.181Z,16.00
2018-03-30T14:11:40.350Z,16.00
2018-03-30T14:14:11.298Z,16.00
2018-03-30T14:16:43.566Z,16.20
2018-03-30T14:19:14.431Z,16.20
2018-03-30T14:21:45.060Z,16.60
2018-03-30T14:24:15.638Z,16.60
2018-03-30T14:26:47.359Z,15.70
2018-03-30T14:29:18.499Z,15.70
2018-03-30T14:31:49.919Z,15.00
2018-03-30T14:34:22.043Z,15.00
2018-03-30T14:36:53.651Z,14.90
2018-03-30T14:39:28.030Z,14.90
2018-03-30T14:41:59.625Z,15.20
2018-03-30T14:44:32.038Z,14.70
2018-03-30T14:47:03.396Z,14.80
2018-03-30T14:49:34.000Z,14.70
2018-03-30T14:52:04.963Z,15.40
2018-03-30T14:54:36.020Z,15.50
2018-03-30T14:57:06.981Z,15.60
2018-03-30T14:59:37.867Z,16.20
2018-03-30T15:02:09.338Z,16.20
2018-03-30T15:04:40.306Z,16.20
2018-03-30T15:07:11.991Z,16.10
2018-03-30T15:09:42.798Z,16.50
2018-03-30T15:12:13.838Z,16.50
2018-03-30T15:14:45.245Z,16.60
2018-03-30T15:17:16.560Z,16.20
2018-03-30T15:19:47.513Z,16.20
2018-03-30T15:22:19.069Z,16.00
2018-03-30T15:24:50.630Z,16.10
2018-03-30T15:27:21.967Z,15.40
2018-03-30T15:29:53.360Z,15.50
2018-03-30T15:32:24.209Z,15.50
2018-03-30T15:34:55.207Z,15.90
2018-03-30T15:37:26.852Z,15.60
2018-03-30T15:39:58.456Z,15.50
2018-03-30T15:42:29.328Z,15.60
2018-03-30T15:44:59.958Z,16.00
2018-03-30T15:47:30.882Z,15.90
2018-03-30T15:50:03.135Z,15.40
2018-03-30T15:52:34.773Z,15.50
2018-03-30T15:55:05.325Z,15.80
2018-03-30T15:57:36.095Z,15.50
2018-03-30T16:00:08.339Z,15.10
2018-03-30T16:02:38.874Z,15.10
2018-03-30T16:05:10.752Z,14.20
2018-03-30T16:07:42.451Z,14.50
2018-03-30T16:10:13.072Z,14.50
2018-03-30T16:12:44.803Z,14.10
2018-03-30T16:15:16.096Z,14.90
2018-03-30T16:17:46.639Z,14.90
2018-03-30T16:20:16.476Z,15.50
2018-03-30T16:22:45.535Z,15.50
2018-03-30T16:25:14.227Z,15.00
2018-03-30T16:27:43.250Z,15.60
2018-03-30T16:30:12.732Z,14.30
2018-03-30T16:32:42.277Z,14.30
2018-03-30T16:35:11.073Z,13.70
2018-03-30T16:37:40.074Z,13.00
2018-03-30T16:40:09.306Z,12.40
2018-03-30T16:42:37.752Z,12.30
2018-03-30T16:45:06.980Z,11.30
2018-03-30T16:47:35.451Z,11.20
2018-03-30T16:50:05.062Z,10.40
2018-03-30T16:52:33.745Z,10.40
2018-03-30T16:55:02.282Z,10.20
2018-03-30T16:57:31.198Z,10.00
2018-03-30T17:00:00.566Z,9.70
2018-03-30T17:02:29.053Z,9.50
2018-03-30T17:04:57.834Z,9.30
2018-03-30T17:07:27.370Z,9.10
2018-03-30T17:09:56.603Z,8.90
2018-03-30T17:12:25.344Z,8.90
2018-03-30T17:14:53.883Z,8.70
2018-03-30T17:17:22.687Z,8.40
2018-03-30T17:19:51.171Z,8.30
2018-03-30T17:22:19.922Z,8.30
2018-03-30T17:24:48.677Z,8.20
2018-03-30T17:27:17.944Z,8.10
2018-03-30T17:29:46.652Z,8.00
2018-03-30T17:32:15.112Z,7.90
2018-03-30T17:34:43.583Z,7.70
2018-03-30T17:37:13.686Z,7.60
2018-03-30T17:39:42.269Z,7.60
2018-03-30T17:42:10.731Z,7.50
2018-03-30T17:44:39.565Z,7.40
2018-03-30T17:47:08.030Z,7.30
2018-03-30T17:49:36.879Z,7.20
2018-03-30T17:52:05.623Z,7.10
2018-03-30T17:54:34.078Z,7.00
2018-03-30T17:57:02.539Z,6.90
2018-03-30T17:59:31.275Z,6.80
2018-03-30T18:02:00.387Z,6.70
2018-03-30T18:04:29.615Z,6.40
2018-03-30T18:06:58.416Z,6.40
2018-03-30T18:09:26.895Z,6.30
2018-03-30T18:11:55.369Z,6.30
2018-03-30T18:14:24.244Z,6.30
2018-03-30T18:16:52.816Z,6.20
2018-03-30T18:19:22.215Z,6.10
2018-03-30T18:21:51.479Z,6.10
2018-03-30T18:24:20.365Z,6.00
2018-03-30T18:26:49.183Z,6.00
2018-03-30T18:29:18.425Z,5.90
2018-03-30T18:31:47.434Z,5.90
2018-03-30T18:34:15.980Z,5.90
2018-03-30T18:36:44.467Z,5.90
2018-03-30T18:39:13.925Z,5.80
2018-03-30T18:41:42.482Z,5.80
2018-03-30T18:44:11.303Z,5.70
2018-03-30T18:46:39.899Z,5.70
2018-03-30T18:49:09.186Z,5.60
2018-03-30T18:51:38.971Z,5.60
2018-03-30T18:54:08.083Z,5.60
2018-03-30T18:56:36.892Z,5.60
2018-03-30T18:59:06.564Z,5.60
2018-03-30T19:01:35.107Z,5.50
2018-03-30T19:04:03.659Z,5.60
2018-03-30T19:06:33.204Z,5.50
2018-03-30T19:09:01.734Z,5.50
2018-03-30T19:11:30.223Z,5.40
2018-03-30T19:13:58.982Z,5.40
2018-03-30T19:16:27.566Z,5.40
2018-03-30T19:18:56.787Z,5.30
2018-03-30T19:21:26.323Z,5.30
2018-03-30T19:23:54.843Z,5.30
2018-03-30T19:26:23.371Z,5.30
2018-03-30T19:28:55.158Z,5.20
2018-03-30T19:31:23.885Z,5.20
2018-03-30T19:33:53.063Z,5.20
2018-03-30T19:36:21.825Z,5.00
2018-03-30T19:38:50.375Z,5.10
2018-03-30T19:41:19.958Z,5.00
2018-03-30T19:43:48.749Z,5.00
2018-03-30T19:46:18.059Z,5.00
2018-03-30T19:48:46.556Z,5.00
2018-03-30T19:51:16.101Z,4.90
2018-03-30T19:53:44.759Z,4.90
2018-03-30T19:56:13.575Z,4.90
2018-03-30T19:58:42.406Z,4.80
2018-03-30T20:01:11.405Z,4.80
2018-03-30T20:03:39.922Z,4.70
2018-03-30T20:06:08.800Z,4.70
2018-03-30T20:08:38.108Z,4.70
2018-03-30T20:11:06.605Z,4.70
2018-03-30T20:13:35.411Z,4.70
2018-03-30T20:16:03.953Z,4.70
2018-03-30T20:18:32.450Z,4.60
2018-03-30T20:21:01.964Z,4.60
2018-03-30T20:23:30.502Z,4.60
2018-03-30T20:25:59.747Z,4.60
2018-03-30T20:28:28.555Z,4.60
2018-03-30T20:30:58.027Z,4.50
2018-03-30T20:33:27.292Z,4.50
2018-03-30T20:35:57.167Z,4.50
2018-03-30T20:38:25.651Z,4.50
2018-03-30T20:40:54.914Z,4.40
2018-03-30T20:43:23.862Z,4.40
2018-03-30T20:45:53.136Z,4.40
2018-03-30T20:48:22.419Z,4.30
2018-03-30T20:50:51.196Z,4.30
2018-03-30T20:53:19.715Z,4.40
2018-03-30T20:55:48.233Z,4.30
2018-03-30T20:58:19.080Z,4.40
2018-03-30T21:00:48.575Z,4.30
2018-03-30T21:03:17.777Z,4.30
2018-03-30T21:05:46.891Z,4.30
2018-03-30T21:08:16.284Z,4.30
2018-03-30T21:10:44.750Z,4.30
2018-03-30T21:13:13.599Z,4.30
2018-03-30T21:15:42.082Z,4.30
2018-03-30T21:18:10.567Z,4.40
2018-03-30T21:20:40.031Z,4.50
2018-03-30T21:23:08.551Z,4.40
2018-03-30T21:25:38.040Z,4.60
2018-03-30T21:28:07.700Z,4.70
2018-03-30T21:30:36.815Z,4.70
2018-03-30T21:33:07.084Z,4.70
2018-03-30T21:35:35.891Z,4.70
2018-03-30T21:38:05.207Z,4.60
2018-03-30T21:40:33.771Z,4.60
2018-03-30T21:43:02.604Z,4.70
2018-03-30T21:45:31.922Z,4.70
2018-03-30T21:48:00.461Z,4.70
2018-03-30T21:50:29.955Z,4.70
2018-03-30T21:52:59.224Z,4.60
2018-03-30T21:55:27.998Z,4.60
2018-03-30T21:57:56.781Z,4.60
2018-03-30T22:00:25.324Z,4.40
2018-03-30T22:02:54.538Z,4.60
2018-03-30T22:05:23.298Z,4.60
2018-03-30T22:07:52.546Z,4.60
2018-03-30T22:10:21.810Z,4.60
2018-03-30T22:12:50.611Z,4.60
2018-03-30T22:15:19.137Z,4.60
2018-03-30T22:17:47.573Z,4.60
2018-03-30T22:20:16.064Z,4.60
2018-03-30T22:22:44.778Z,4.50
2018-03-30T22:25:13.989Z,4.50
2018-03-30T22:27:43.408Z,4.30
2018-03-30T22:30:12.325Z,4.30
2018-03-30T22:32:40.802Z,4.30
2018-03-30T22:35:09.351Z,4.20
2018-03-30T22:37:38.939Z,4.10
2018-03-30T22:40:07.498Z,4.10
2018-03-30T22:42:36.770Z,4.00
2018-03-30T22:45:07.102Z,4.00
2018-03-30T22:47:35.650Z,3.90
2018-03-30T22:50:04.932Z,3.80
2018-03-30T22:52:33.691Z,3.80
2018-03-30T22:55:02.395Z,3.90
2018-03-30T22:57:31.698Z,3.90
2018-03-30T23:00:00.423Z,3.80
2018-03-30T23:02:28.925Z,3.80
2018-03-30T23:04:57.398Z,3.80
2018-03-30T23:07:26.395Z,3.70
2018-03-30T23:09:55.969Z,3.60
2018-03-30T23:12:24.707Z,3.60
2018-03-30T23:14:54.304Z,3.60
2018-03-30T23:17:23.016Z,3.50
2018-03-30T23:19:52.727Z,3.40
2018-03-30T23:22:21.958Z,3.40
2018-03-30T23:24:50.826Z,3.40
2018-03-30T23:27:20.648Z,3.40
2018-03-30T23:29:49.842Z,3.40
2018-03-30T23:32:18.640Z,3.40
2018-03-30T23:34:48.182Z,3.30
2018-03-30T23:37:17.958Z,3.30
2018-03-30T23:39:46.674Z,3.30
2018-03-30T23:42:16.447Z,3.30
2018-03-30T23:44:45.380Z,3.30
2018-03-30T23:47:14.131Z,3.30
2018-03-30T23:49:42.912Z,3.20
2018-03-30T23:52:12.132Z,3.10
2018-03-30T23:54:40.914Z,3.20
2018-03-30T23:57:09.619Z,3.10
2018-03-30T23:59:38.952Z,3.10
